Time;durP1;ratioP1;P1;durP2;ratioP2;P2;SDS_P1;SDS_P2;PMS_P1;PMS_P2;Temp;Humidity;BMP_temperature;BMP_pressure;BME280_temperature;BME280_humidity;BME280_pressure;Samples;Min_cycle;Max_cycle;Signal;HPM_P1;HPM_P2
2024/03/16 00:01:30;;;;;;;0.00;0.00;;;;;;;-145.06;100.00;52219.97;10449241;28;20530;-70
2024/03/16 00:06:30;;;;;;;0.00;0.00;;;;;;;-145.06;100.00;52256.41;10449090;28;20251;-69
2024/03/16 00:11:31;;;;;;;0.00;0.00;;;;;;;-145.06;100.00;52221.97;10448757;28;20051;-69
2024/03/16 00:16:32;;;;;;;0.10;0.10;;;;;;;-145.06;100.00;52217.94;10449170;28;20032;-70
2024/03/16 00:21:32;;;;;;;0.10;0.10;;;;;;;-145.06;100.00;52197.69;10447895;28;20471;-70
2024/03/16 00:26:33;;;;;;;0.10;0.10;;;;;;;-145.06;100.00;52185.53;10448522;28;20059;-69
2024/03/16 00:31:34;;;;;;;0.00;0.00;;;;;;;-145.06;100.00;52183.53;10448716;28;20051;-69
2024/03/16 00:36:35;;;;;;;0.10;0.10;;;;;;;-145.06;100.00;52183.53;10447839;28;20029;-70
2024/03/16 00:41:35;;;;;;;0.00;0.00;;;;;;;-145.06;100.00;52191.63;10448558;28;20025;-69
2024/03/16 00:46:36;;;;;;;0.08;0.08;;;;;;;-145.06;100.00;52143.03;10451917;28;20021;-69
2024/03/16 00:51:36;;;;;;;0.00;0.00;;;;;;;-145.06;100.00;52130.88;10456882;28;20033;-69
2024/03/16 00:56:38;;;;;;;0.08;0.08;;;;;;;-145.06;100.00;52094.47;10455667;28;20054;-69
2024/03/16 01:01:38;;;;;;;0.10;0.10;;;;;;;-145.06;100.00;52120.78;10455593;28;20411;-69
2024/03/16 01:06:39;;;;;;;0.10;0.10;;;;;;;-145.06;100.00;52090.41;10455109;28;20024;-70
2024/03/16 01:11:39;;;;;;;0.10;0.10;;;;;;;-145.06;100.00;52064.09;10455181;28;20032;-70
2024/03/16 01:16:39;;;;;;;0.10;0.10;;;;;;;-145.06;100.00;52053.97;10454753;28;20025;-69
2024/03/16 01:21:40;;;;;;;0.10;0.10;;;;;;;-145.06;100.00;52017.53;10454763;28;20039;-69
2024/03/16 01:26:40;;;;;;;0.10;0.10;;;;;;;-145.06;100.00;51997.28;10452666;28;20017;-70
2024/03/16 01:31:40;;;;;;;0.00;0.00;;;;;;;-145.06;100.00;51993.25;10455661;28;20021;-70
2024/03/16 01:36:40;;;;;;;0.10;0.10;;;;;;;-145.06;100.00;51981.09;10453785;28;20061;-70
2024/03/16 01:41:41;;;;;;;0.10;0.10;;;;;;;-145.06;100.00;51991.22;10454084;28;20025;-70
2024/03/16 01:46:41;;;;;;;0.10;0.10;;;;;;;-145.06;100.00;51970.97;10453685;28;20028;-69
2024/03/16 01:51:42;;;;;;;0.10;0.10;;;;;;;-145.06;100.00;51948.72;10453352;28;20378;-70
2024/03/16 01:56:42;;;;;;;0.10;0.10;;;;;;;-145.06;100.00;51973.00;10452474;28;20028;-69
2024/03/16 02:01:42;;;;;;;0.10;0.10;;;;;;;-145.06;100.00;51936.56;10452768;28;20295;-70
2024/03/16 02:06:48;;;;;;;0.10;0.10;;;;;;;-145.06;100.00;51962.88;10451651;28;20021;-70
2024/03/16 02:11:49;;;;;;;0.10;0.10;;;;;;;-145.06;100.00;51956.81;10452174;28;20040;-69
2024/03/16 02:16:50;;;;;;;0.10;0.10;;;;;;;-145.06;100.00;51932.53;10452657;28;20484;-70
2024/03/16 02:21:50;;;;;;;0.00;0.00;;;;;;;-145.06;100.00;51952.75;10452549;28;20471;-69
2024/03/16 02:26:51;;;;;;;0.10;0.10;;;;;;;-145.06;100.00;51938.59;10451928;28;20040;-70
2024/03/16 02:31:51;;;;;;;0.10;0.10;;;;;;;-145.06;100.00;51956.81;10452309;28;20017;-70
2024/03/16 02:36:52;;;;;;;0.00;0.00;;;;;;;-145.06;100.00;51928.47;10451982;28;20024;-70
2024/03/16 02:41:55;;;;;;;0.10;0.10;;;;;;;-145.06;100.00;51964.91;10451779;28;20025;-69
2024/03/16 02:46:56;;;;;;;0.00;0.00;;;;;;;-145.06;100.00;51948.72;10451742;28;20416;-69
2024/03/16 02:51:57;;;;;;;0.10;0.10;;;;;;;-145.06;100.00;51983.13;10450889;28;20021;-69
2024/03/16 02:56:57;;;;;;;0.10;0.10;;;;;;;-145.06;100.00;51956.81;10449443;28;20017;-69
2024/03/16 03:01:57;;;;;;;0.10;0.10;;;;;;;-145.06;100.00;51928.47;10450518;28;20021;-70
2024/03/16 03:06:58;;;;;;;0.10;0.10;;;;;;;-145.06;100.00;51924.41;10450825;28;20024;-70
2024/03/16 03:11:58;;;;;;;0.10;0.10;;;;;;;-145.06;100.00;51910.25;10450635;28;20256;-69
2024/03/16 03:16:59;;;;;;;0.10;0.10;;;;;;;-145.06;100.00;51942.63;10449678;28;20271;-69
2024/03/16 03:21:59;;;;;;;0.10;0.10;;;;;;;-145.06;100.00;51936.56;10450214;28;20021;-69
2024/03/16 03:26:59;;;;;;;0.10;0.10;;;;;;;-145.06;100.00;51906.22;10449434;28;20437;-69
2024/03/16 03:31:59;;;;;;;0.10;0.10;;;;;;;-145.06;100.00;51918.34;10449944;28;20028;-69
2024/03/16 03:37:00;;;;;;;0.10;0.10;;;;;;;-145.06;100.00;51942.63;10448364;28;20509;-69
2024/03/16 03:42:00;;;;;;;0.00;0.00;;;;;;;-145.06;100.00;51875.84;10449191;28;20087;-70
2024/03/16 03:47:02;;;;;;;0.00;0.00;;;;;;;-145.06;100.00;51912.28;10449269;28;20021;-70
2024/03/16 03:52:03;;;;;;;0.10;0.10;;;;;;;-145.06;100.00;51912.28;10449598;28;20013;-69
2024/03/16 03:57:03;;;;;;;0.10;0.10;;;;;;;-145.06;100.00;51912.28;10447843;28;20017;-69
2024/03/16 04:02:04;;;;;;;0.10;0.10;;;;;;;-145.06;100.00;51912.28;10449160;28;20370;-69
2024/03/16 04:07:04;;;;;;;0.10;0.10;;;;;;;-145.06;100.00;51944.66;10448584;28;20024;-69
2024/03/16 04:12:04;;;;;;;0.10;0.10;;;;;;;-145.06;100.00;51908.22;10450818;28;20021;-69
2024/03/16 04:17:05;;;;;;;0.10;0.10;;;;;;;-145.06;100.00;51910.25;10448273;28;20028;-69
2024/03/16 04:22:05;;;;;;;0.10;0.10;;;;;;;-145.06;100.00;51926.44;10452456;28;20386;-68
2024/03/16 04:27:06;;;;;;;0.00;0.00;;;;;;;-145.06;100.00;51995.28;10453615;28;20060;-68
2024/03/16 04:32:06;;;;;;;0.10;0.10;;;;;;;-145.06;100.00;51983.13;10455470;28;20060;-69
2024/03/16 04:37:06;;;;;;;0.10;0.10;;;;;;;-145.06;100.00;51968.94;10454683;28;20021;-69
2024/03/16 04:42:06;;;;;;;0.10;0.10;;;;;;;-145.06;100.00;52017.53;10454924;28;20031;-68
2024/03/16 04:47:07;;;;;;;0.10;0.10;;;;;;;-145.06;100.00;52015.50;10455036;28;20029;-67
2024/03/16 04:52:07;;;;;;;0.10;0.10;;;;;;;-145.06;100.00;52126.84;10454953;28;20029;-68
2024/03/16 04:57:07;;;;;;;0.10;0.10;;;;;;;-145.06;100.00;52177.44;10455694;28;20029;-68
2024/03/16 05:02:08;;;;;;;0.10;0.10;;;;;;;-145.06;100.00;52197.69;10455797;28;20290;-67
2024/03/16 05:07:08;;;;;;;0.10;0.10;;;;;;;-145.06;100.00;52209.84;10454872;28;20275;-68
2024/03/16 05:12:08;;;;;;;0.10;0.10;;;;;;;-145.06;100.00;52219.97;10454634;28;20028;-67
2024/03/16 05:17:08;;;;;;;0.08;0.08;;;;;;;-145.06;100.00;52254.38;10454019;28;20406;-68
2024/03/16 05:22:09;;;;;;;0.10;0.10;;;;;;;-145.06;100.00;52272.59;10454625;28;20822;-68
2024/03/16 05:27:10;;;;;;;0.10;0.10;;;;;;;-145.06;100.00;52256.41;10453722;28;20021;-68
2024/03/16 05:32:10;;;;;;;0.10;0.10;;;;;;;-145.06;100.00;52300.94;10452878;28;20037;-68
2024/03/16 05:37:10;;;;;;;0.10;0.10;;;;;;;-145.06;100.00;52272.59;10452367;28;20394;-68
2024/03/16 05:42:11;;;;;;;0.10;0.10;;;;;;;-145.06;100.00;52286.75;10453528;28;20291;-68
2024/03/16 05:47:11;;;;;;;0.10;0.10;;;;;;;-145.06;100.00;52307.00;10453780;28;20127;-69
2024/03/16 05:52:11;;;;;;;0.10;0.10;;;;;;;-145.06;100.00;52355.59;10453248;28;20603;-68
2024/03/16 05:57:12;;;;;;;0.10;0.10;;;;;;;-145.06;100.00;52321.19;10453234;28;20347;-68
2024/03/16 06:02:12;;;;;;;0.10;0.10;;;;;;;-145.06;100.00;52355.59;10453225;28;20029;-68
2024/03/16 06:07:13;;;;;;;0.10;0.10;;;;;;;-145.06;100.00;52373.81;10452533;28;20083;-70
2024/03/16 06:12:13;;;;;;;0.10;0.10;;;;;;;-145.06;100.00;52479.06;10452769;28;20259;-69
2024/03/16 06:17:13;;;;;;;0.10;0.10;;;;;;;-145.06;100.00;52454.78;10452306;28;20275;-69
2024/03/16 06:22:15;;;;;;;0.10;0.10;;;;;;;-145.06;100.00;52493.25;10452479;28;20029;-69
2024/03/16 06:27:21;;;;;;;0.00;0.00;;;;;;;-145.06;100.00;52539.81;10451754;28;20028;-69
2024/03/16 06:32:21;;;;;;;0.10;0.10;;;;;;;-145.06;100.00;52529.69;10450677;28;20028;-69
2024/03/16 06:37:21;;;;;;;0.00;0.00;;;;;;;-145.06;100.00;52517.53;10451437;28;20020;-69
2024/03/16 06:42:23;;;;;;;0.00;0.00;;;;;;;-145.06;100.00;52519.56;10451193;28;20040;-69
2024/03/16 06:47:23;;;;;;;0.10;0.10;;;;;;;-145.06;100.00;52527.66;10451953;28;20024;-69
2024/03/16 06:52:27;;;;;;;0.10;0.10;;;;;;;-145.06;100.00;52521.59;10451603;28;20535;-69
2024/03/16 06:57:27;;;;;;;0.00;0.00;;;;;;;-145.06;100.00;52529.69;10451329;28;20021;-70
2024/03/16 07:02:27;;;;;;;0.10;0.10;;;;;;;-145.06;100.00;52529.69;10451176;28;20025;-70
2024/03/16 07:07:28;;;;;;;0.10;0.10;;;;;;;-145.06;100.00;52558.03;10450482;28;20025;-69
2024/03/16 07:12:28;;;;;;;0.10;0.10;;;;;;;-145.06;100.00;52556.00;10450911;28;20021;-70
2024/03/16 07:17:31;;;;;;;0.00;0.00;;;;;;;-145.06;100.00;52515.53;10450403;28;20036;-70
2024/03/16 07:22:31;;;;;;;0.00;0.00;;;;;;;-145.06;100.00;52584.34;10451241;28;20054;-70
2024/03/16 07:27:32;;;;;;;0.00;0.00;;;;;;;-145.06;100.00;52606.63;10450049;28;20048;-70
2024/03/16 07:32:33;;;;;;;0.00;0.00;;;;;;;-145.06;100.00;52639.00;10449138;28;20478;-70
2024/03/16 07:37:33;;;;;;;0.00;0.00;;;;;;;-145.06;100.00;52681.53;10449647;28;20032;-69
2024/03/16 07:42:34;;;;;;;0.00;0.00;;;;;;;-145.06;100.00;52701.78;10449668;28;20021;-70
2024/03/16 07:47:35;;;;;;;0.10;0.10;;;;;;;-145.06;100.00;52713.91;10449637;28;20048;-70
2024/03/16 07:52:35;;;;;;;0.00;0.00;;;;;;;-145.06;100.00;52713.91;10449650;28;20055;-70
2024/03/16 07:57:35;;;;;;;0.00;0.00;;;;;;;-145.06;100.00;52691.66;10447875;28;20039;-70
2024/03/16 08:02:35;;;;;;;0.10;0.10;;;;;;;-145.06;100.00;52742.25;10448790;28;20028;-70
2024/03/16 08:07:36;;;;;;;0.10;0.10;;;;;;;-145.06;100.00;52711.91;10447599;28;20075;-70
2024/03/16 08:12:36;;;;;;;0.00;0.00;;;;;;;-145.06;100.00;52734.16;10448921;28;20021;-70
2024/03/16 08:17:37;;;;;;;0.10;0.10;;;;;;;-145.06;100.00;52758.47;10448838;28;20029;-70
2024/03/16 08:22:37;;;;;;;0.00;0.00;;;;;;;-145.06;100.00;52758.47;10448726;28;20021;-70
2024/03/16 08:27:38;;;;;;;0.00;0.00;;;;;;;-145.06;100.00;52774.66;10448659;28;20020;-70
2024/03/16 08:32:38;;;;;;;0.10;0.10;;;;;;;-145.06;100.00;52760.47;10448722;28;20096;-70
2024/03/16 08:37:38;;;;;;;0.10;0.10;;;;;;;-145.06;98.79;52748.34;10448355;28;20390;-70
2024/03/16 08:42:42;;;;;;;0.10;0.10;;;;;;;-145.06;93.56;52807.06;10448708;28;20275;-70
2024/03/16 08:47:42;;;;;;;0.10;0.10;;;;;;;-145.06;94.74;52776.69;10448068;28;20744;-70
2024/03/16 08:52:43;;;;;;;0.00;0.00;;;;;;;-145.06;93.51;52815.16;10448553;28;20024;-70
2024/03/16 08:57:43;;;;;;;0.10;0.10;;;;;;;-145.06;92.86;52782.75;10447907;28;20430;-70
2024/03/16 09:02:43;;;;;;;0.00;0.00;;;;;;;-145.06;95.55;52778.72;10448504;28;20029;-70
2024/03/16 09:07:44;;;;;;;0.00;0.00;;;;;;;-145.06;96.35;52738.22;10450946;28;20390;-70
2024/03/16 09:12:46;;;;;;;0.00;0.00;;;;;;;-145.06;96.30;52693.69;10455322;28;20017;-70
2024/03/16 09:17:47;;;;;;;0.10;0.10;;;;;;;-145.06;94.93;52732.13;10454571;28;20082;-70
2024/03/16 09:22:52;;;;;;;0.10;0.10;;;;;;;-145.06;98.88;52744.28;10454764;28;20419;-71
2024/03/16 09:27:52;;;;;;;0.10;0.10;;;;;;;-145.06;100.00;52722.03;10454470;28;20024;-70
2024/03/16 09:32:52;;;;;;;0.00;0.00;;;;;;;-145.06;100.00;52762.50;10453404;28;20024;-70
2024/03/16 09:37:53;;;;;;;0.10;0.10;;;;;;;-145.06;100.00;52770.59;10453772;28;20394;-71
2024/03/16 09:42:53;;;;;;;0.10;0.10;;;;;;;-145.06;100.00;52724.03;10454019;28;20029;-71
2024/03/16 09:47:53;;;;;;;0.10;0.10;;;;;;;-145.06;100.00;52713.91;10453612;28;20017;-71
2024/03/16 09:52:55;;;;;;;0.10;0.10;;;;;;;-145.06;96.27;52778.72;10466583;28;20103;-71
2024/03/16 09:57:55;;;;;;;0.10;0.10;;;;;;;-145.06;91.01;52790.84;10451455;28;20090;-71
2024/03/16 10:02:57;;;;;;;0.10;0.10;;;;;;;-145.06;91.00;52756.44;10451930;28;20112;-71
2024/03/16 10:07:58;;;;;;;0.10;0.10;;;;;;;-145.06;85.15;52703.78;10452455;28;20489;-71
2024/03/16 10:13:07;;;;;;;0.10;0.10;;;;;;;-145.06;81.29;52740.25;10452490;28;20100;-71
2024/03/16 10:18:11;;;;;;;0.10;0.10;;;;;;;-145.06;81.41;52750.38;10451405;28;20334;-71
2024/03/16 10:23:15;;;;;;;0.10;0.10;;;;;;;-145.06;79.10;52760.47;10452481;28;20392;-77
2024/03/16 10:28:16;;;;;;;;;;;;;;;-145.06;79.16;52790.84;10453151;28;20064;-70
2024/03/16 10:33:18;;;;;;;0.10;0.10;;;;;;;-145.06;76.89;52803.00;10452807;28;20353;-72
2024/03/16 10:38:19;;;;;;;0.10;0.10;;;;;;;-145.06;76.52;52701.78;10452654;28;20475;-75
2024/03/16 10:43:20;;;;;;;0.10;0.10;;;;;;;-145.06;74.42;52740.25;10456731;28;20024;-70
2024/03/16 10:48:21;;;;;;;0.10;0.10;;;;;;;-145.06;72.58;52762.50;10451591;28;20056;-75
2024/03/16 10:53:21;;;;;;;0.10;0.10;;;;;;;-145.06;75.63;52720.00;10451319;28;20450;-69
2024/03/16 10:58:25;;;;;;;0.10;0.10;;;;;;;-145.06;74.98;52774.66;10450614;28;20074;-69
2024/03/16 11:03:27;;;;;;;0.00;0.00;;;;;;;-145.06;77.24;52766.56;10451214;28;20013;-68
2024/03/16 11:08:41;;;;;;;0.00;0.00;;;;;;;-145.06;77.58;52788.84;10451723;28;20032;-68
2024/03/16 11:13:58;;;;;;;0.00;0.00;;;;;;;-145.06;75.56;52786.81;10449444;28;20052;-70
2024/03/16 11:18:59;;;;;;;0.10;0.10;;;;;;;-145.06;74.95;52717.97;10452885;28;20032;-70
2024/03/16 11:24:04;;;;;;;0.10;0.10;;;;;;;-145.06;71.24;52750.38;10449204;28;20021;-69
2024/03/16 11:29:14;;;;;;;0.10;0.10;;;;;;;-145.06;73.39;52738.22;10452106;28;20107;-70
2024/03/16 11:34:19;;;;;;;0.10;0.10;;;;;;;-145.06;63.65;52890.06;10458566;28;20031;-68
2024/03/16 11:39:25;;;;;;;0.00;0.00;;;;;;;-145.06;63.95;52904.22;10448708;28;20021;-71
2024/03/16 11:44:28;;;;;;;0.10;0.10;;;;;;;-145.06;70.02;52786.81;10447318;28;20025;-69
2024/03/16 11:49:28;;;;;;;0.00;0.00;;;;;;;-145.06;67.32;52827.28;10449322;28;20021;-70
2024/03/16 11:54:28;;;;;;;0.10;0.10;;;;;;;-145.06;64.52;52786.81;10450332;28;20020;-67
2024/03/16 11:59:29;;;;;;;0.10;0.10;;;;;;;-145.06;57.97;52934.59;10449724;28;20067;-67
2024/03/16 12:04:29;;;;;;;0.10;0.10;;;;;;;-145.06;61.70;52896.13;10448266;28;20090;-66
2024/03/16 12:09:33;;;;;;;0.10;0.10;;;;;;;-145.06;65.09;52859.69;10447636;28;20032;-66
2024/03/16 12:14:34;;;;;;;0.00;0.00;;;;;;;-145.06;56.67;52987.25;10446290;28;20115;-67
2024/03/16 12:19:35;;;;;;;0.10;0.10;;;;;;;-145.06;63.11;52890.06;10446029;28;20035;-67
2024/03/16 12:24:35;;;;;;;0.10;0.10;;;;;;;-145.06;58.31;52916.38;10448316;28;20023;-67
2024/03/16 12:29:36;;;;;;;0.10;0.10;;;;;;;-145.06;55.50;52997.38;10448258;28;20013;-67
2024/03/16 12:34:36;;;;;;;0.10;0.10;;;;;;;-145.06;55.42;53019.63;10448726;28;20017;-67
2024/03/16 12:39:37;;;;;;;0.00;0.00;;;;;;;-145.06;58.23;53035.84;10446752;28;20033;-67
2024/03/16 12:44:38;;;;;;;0.00;0.00;;;;;;;-145.06;59.93;53015.59;10453390;28;20021;-66
2024/03/16 12:49:38;;;;;;;0.10;0.10;;;;;;;-145.06;61.31;53025.72;10455732;28;20021;-67
2024/03/16 12:54:38;;;;;;;0.08;0.08;;;;;;;-145.06;60.93;53050.00;10456171;28;20017;-67
2024/03/16 12:59:39;;;;;;;0.00;0.00;;;;;;;-145.06;58.26;53084.44;10456240;28;20023;-67
2024/03/16 13:04:39;;;;;;;0.10;0.10;;;;;;;-145.06;54.08;53207.94;10456641;28;20032;-67
2024/03/16 13:09:40;;;;;;;0.10;0.10;;;;;;;-145.06;59.42;53161.38;10455272;28;20017;-67
2024/03/16 13:14:41;;;;;;;0.10;0.10;;;;;;;-145.06;63.27;53116.81;10455480;28;20474;-67
2024/03/16 13:19:42;;;;;;;0.10;0.10;;;;;;;-145.06;60.61;53135.06;10455010;28;20033;-67
2024/03/16 13:24:44;;;;;;;0.10;0.10;;;;;;;-145.06;60.29;53191.75;10455106;28;20017;-67
2024/03/16 13:29:45;;;;;;;0.00;0.00;;;;;;;-145.06;61.58;53173.53;10454991;28;20028;-67
2024/03/16 13:34:45;;;;;;;0.10;0.10;;;;;;;-145.06;61.19;53195.78;10454666;28;20028;-67
2024/03/16 13:39:45;;;;;;;0.00;0.00;;;;;;;-145.06;57.51;53246.41;10453169;28;20028;-67
2024/03/16 13:44:47;;;;;;;0.10;0.10;;;;;;;-145.06;62.57;53185.66;10454446;28;20023;-67
2024/03/16 13:49:47;;;;;;;0.00;0.00;;;;;;;-145.06;62.39;53236.28;10452405;28;20517;-68
2024/03/16 13:54:48;;;;;;;0.10;0.10;;;;;;;-145.06;61.96;53268.69;10453518;28;20017;-66
2024/03/16 13:59:48;;;;;;;0.00;0.00;;;;;;;-145.06;59.95;53295.00;10453347;28;20033;-67
2024/03/16 14:04:49;;;;;;;0.00;0.00;;;;;;;-145.06;63.62;53244.38;10453703;28;20368;-67
2024/03/16 14:09:49;;;;;;;0.10;0.10;;;;;;;-145.06;62.22;53248.44;10453293;28;20027;-67
2024/03/16 14:14:55;;;;;;;0.10;0.10;;;;;;;-145.06;61.34;53252.50;10452921;28;20021;-66
2024/03/16 14:19:55;;;;;;;0.10;0.10;;;;;;;-145.06;63.45;53230.22;10452645;28;20020;-67
2024/03/16 14:24:56;;;;;;;0.10;0.10;;;;;;;-145.06;60.95;53236.28;10452760;28;20013;-67
2024/03/16 14:29:56;;;;;;;0.03;0.03;;;;;;;-145.06;61.27;53260.59;10450955;28;20525;-66
2024/03/16 14:34:56;;;;;;;0.10;0.10;;;;;;;-145.06;60.58;53278.81;10452425;28;20017;-67
2024/03/16 14:39:57;;;;;;;0.10;0.10;;;;;;;-145.06;60.83;53282.88;10451598;28;20025;-67
2024/03/16 14:44:57;;;;;;;0.00;0.00;;;;;;;-145.06;60.94;53331.47;10451922;28;20028;-66
2024/03/16 14:49:57;;;;;;;0.00;0.00;;;;;;;-145.06;60.79;53341.59;10451383;28;20024;-66
2024/03/16 14:54:58;;;;;;;0.10;0.10;;;;;;;-145.06;60.70;53384.09;10451469;28;20028;-66
2024/03/16 14:59:59;;;;;;;0.10;0.10;;;;;;;-145.06;60.53;53317.28;10450930;28;20347;-67
2024/03/16 15:04:59;;;;;;;0.00;0.00;;;;;;;-145.06;58.87;53386.13;10450883;28;20016;-67
2024/03/16 15:09:59;;;;;;;0.05;0.05;;;;;;;-145.06;56.98;53438.78;10450946;28;20028;-67
2024/03/16 15:15:00;;;;;;;0.10;0.10;;;;;;;-145.06;59.96;53438.78;10450585;28;20021;-67
2024/03/16 15:20:00;;;;;;;0.10;0.10;;;;;;;-145.06;59.76;53461.06;10450215;28;20397;-67
2024/03/16 15:25:16;;;;;;;0.10;0.10;;;;;;;-145.06;59.35;53473.19;10449084;28;20024;-67
2024/03/16 15:30:17;;;;;;;0.10;0.10;;;;;;;-145.06;63.98;53444.84;10450613;28;20024;-67
2024/03/16 15:35:17;;;;;;;0.10;0.10;;;;;;;-145.06;62.73;53467.13;10450332;28;20032;-66
2024/03/16 15:40:17;;;;;;;0.10;0.10;;;;;;;-145.06;64.03;53511.69;10449777;28;20481;-66
2024/03/16 15:45:19;;;;;;;0.10;0.10;;;;;;;-145.06;63.86;53499.53;10450331;28;20021;-67
2024/03/16 15:50:19;;;;;;;0.00;0.00;;;;;;;-145.06;64.27;53505.59;10451710;28;20066;-67
2024/03/16 15:55:19;;;;;;;0.00;0.00;;;;;;;-145.06;67.32;53489.41;10449684;28;20048;-66
2024/03/16 16:00:20;;;;;;;0.10;0.10;;;;;;;-145.06;70.85;53457.00;10449097;28;20035;-66
2024/03/16 16:05:22;;;;;;;0.10;0.10;;;;;;;-145.06;70.25;53459.03;10449388;28;20031;-66
2024/03/16 16:10:22;;;;;;;0.10;0.10;;;;;;;-145.06;70.99;53487.38;10449400;28;20477;-66
2024/03/16 16:15:23;;;;;;;0.10;0.10;;;;;;;-145.06;74.85;53459.03;10449574;28;20020;-67
2024/03/16 16:20:23;;;;;;;0.08;0.08;;;;;;;-145.06;73.01;53483.31;10456851;28;20025;-66
2024/03/16 16:25:29;;;;;;;0.10;0.10;;;;;;;-145.06;74.47;53489.41;10457510;28;20115;-67
2024/03/16 16:30:30;;;;;;;0.10;0.10;;;;;;;-145.06;75.19;53471.19;10457723;28;20025;-66
2024/03/16 16:35:30;;;;;;;0.10;0.10;;;;;;;-145.06;77.96;53454.97;10457320;28;20028;-66
2024/03/16 16:40:31;;;;;;;0.10;0.10;;;;;;;-145.06;79.65;53485.34;10457941;28;20087;-66
2024/03/16 16:45:31;;;;;;;0.10;0.10;;;;;;;-145.06;81.99;53465.09;10456868;28;20534;-66
2024/03/16 16:50:32;;;;;;;0.00;0.00;;;;;;;-145.06;81.15;53491.44;10456378;28;20100;-65
2024/03/16 16:55:35;;;;;;;0.00;0.00;;;;;;;-145.06;81.67;53473.19;10456842;28;20028;-66
2024/03/16 17:00:36;;;;;;;0.00;0.00;;;;;;;-145.06;83.75;53465.09;10456777;28;20029;-65
2024/03/16 17:05:36;;;;;;;0.10;0.10;;;;;;;-145.06;84.55;53493.44;10459734;28;20032;-65
2024/03/16 17:10:37;;;;;;;0.10;0.10;;;;;;;-145.06;85.70;53487.38;10459337;28;20074;-65
2024/03/16 17:15:37;;;;;;;0.10;0.10;;;;;;;-145.06;86.88;53471.19;10459264;28;20108;-65
2024/03/16 17:20:37;;;;;;;0.00;0.00;;;;;;;-145.06;87.90;53485.34;10459770;28;20093;-65
2024/03/16 17:25:38;;;;;;;0.00;0.00;;;;;;;-145.06;89.34;53489.41;10458635;28;20033;-65
2024/03/16 17:30:39;;;;;;;0.00;0.00;;;;;;;-145.06;90.37;53491.44;10458695;28;20025;-65
2024/03/16 17:35:40;;;;;;;0.00;0.00;;;;;;;-145.06;90.93;53495.47;10458203;28;20021;-65
2024/03/16 17:40:40;;;;;;;0.03;0.03;;;;;;;-145.06;91.73;53463.06;10458095;28;20025;-65
2024/03/16 17:45:40;;;;;;;0.10;0.10;;;;;;;-145.06;94.35;53469.16;10458189;28;20033;-65
2024/03/16 17:50:40;;;;;;;0.10;0.10;;;;;;;-145.06;96.18;53471.19;10458065;28;20021;-65
2024/03/16 17:55:41;;;;;;;0.00;0.00;;;;;;;-145.06;98.02;53452.94;10455950;28;20021;-65
2024/03/16 18:00:41;;;;;;;0.10;0.10;;;;;;;-145.06;98.69;53440.81;10453827;28;20023;-66
2024/03/16 18:05:41;;;;;;;0.00;0.00;;;;;;;-145.06;98.09;53442.81;10453429;28;20533;-66
2024/03/16 18:10:42;;;;;;;0.00;0.00;;;;;;;-145.06;99.26;53446.88;10453167;28;20012;-66
2024/03/16 18:15:42;;;;;;;0.00;0.00;;;;;;;-145.06;98.40;53450.94;10453101;28;20024;-65
2024/03/16 18:20:43;;;;;;;0.00;0.00;;;;;;;-145.06;98.13;53489.41;10454175;28;20592;-65
2024/03/16 18:25:44;;;;;;;0.00;0.00;;;;;;;-145.06;98.38;53479.28;10451973;28;20021;-66
2024/03/16 18:30:44;;;;;;;0.10;0.10;;;;;;;-145.06;98.21;53471.19;10451372;28;20259;-66
2024/03/16 18:35:46;;;;;;;0.00;0.00;;;;;;;-145.06;99.06;53489.41;10452389;28;20024;-66
2024/03/16 18:40:46;;;;;;;0.00;0.00;;;;;;;-145.06;100.00;53487.38;10452036;28;20025;-65
2024/03/16 18:45:46;;;;;;;0.00;0.00;;;;;;;-145.06;100.00;53511.69;10453781;28;20020;-65
2024/03/16 18:50:47;;;;;;;0.00;0.00;;;;;;;-145.06;100.00;53505.59;10451737;28;20033;-66
2024/03/16 18:55:47;;;;;;;0.00;0.00;;;;;;;-145.06;100.00;53471.19;10451589;28;20017;-65
2024/03/16 19:00:48;;;;;;;0.00;0.00;;;;;;;-145.06;100.00;53461.06;10451004;28;20310;-66
2024/03/16 19:05:49;;;;;;;0.00;0.00;;;;;;;-145.06;100.00;53493.44;10451484;28;20259;-66
2024/03/16 19:10:49;;;;;;;0.00;0.00;;;;;;;-145.06;100.00;53442.81;10450270;28;20501;-66
2024/03/16 19:15:50;;;;;;;0.10;0.10;;;;;;;-145.06;100.00;53424.59;10450771;28;20025;-66
2024/03/16 19:20:51;;;;;;;0.00;0.00;;;;;;;-145.06;100.00;53483.31;10449969;28;20032;-66
2024/03/16 19:25:53;;;;;;;0.00;0.00;;;;;;;-145.06;100.00;53459.03;10450279;28;20056;-66
2024/03/16 19:30:53;;;;;;;0.00;0.00;;;;;;;-145.06;100.00;53452.94;10450417;28;20021;-66
2024/03/16 19:35:53;;;;;;;0.00;0.00;;;;;;;-145.06;100.00;53446.88;10452605;28;20558;-66
2024/03/16 19:40:54;;;;;;;0.00;0.00;;;;;;;-145.06;100.00;53446.88;10449937;28;20466;-66
2024/03/16 19:45:54;;;;;;;0.00;0.00;;;;;;;-145.06;100.00;53430.69;10450405;28;20052;-66
2024/03/16 19:50:54;;;;;;;0.00;0.00;;;;;;;-145.06;100.00;53452.94;10448659;28;20263;-65
2024/03/16 19:55:55;;;;;;;0.00;0.00;;;;;;;-145.06;100.00;53438.78;10449685;28;20513;-66
2024/03/16 20:00:57;;;;;;;0.00;0.00;;;;;;;-145.06;100.00;53438.78;10449165;28;20052;-65
2024/03/16 20:05:57;;;;;;;0.00;0.00;;;;;;;-145.06;100.00;53442.81;10449542;28;20012;-66
2024/03/16 20:10:57;;;;;;;0.00;0.00;;;;;;;-145.06;100.00;53432.69;10448924;28;20420;-66
2024/03/16 20:15:57;;;;;;;0.00;0.00;;;;;;;-145.06;100.00;53446.88;10449097;28;20378;-66
2024/03/16 20:21:02;;;;;;;0.00;0.00;;;;;;;-145.06;100.00;53438.78;10448387;28;20435;-65
2024/03/16 20:26:04;;;;;;;0.00;0.00;;;;;;;-145.06;100.00;53410.44;10449229;28;20013;-66
2024/03/16 20:31:05;;;;;;;0.10;0.10;;;;;;;-145.06;100.00;53422.56;10448647;28;20101;-66
2024/03/16 20:36:05;;;;;;;0.00;0.00;;;;;;;-145.06;100.00;53384.09;10448349;28;20013;-66
2024/03/16 20:41:14;;;;;;;0.00;0.00;;;;;;;-145.06;100.00;53396.25;10448382;28;20386;-65
2024/03/16 20:46:15;;;;;;;0.00;0.00;;;;;;;-145.06;100.00;53402.31;10448349;28;20475;-66
2024/03/16 20:51:15;;;;;;;0.00;0.00;;;;;;;-145.06;100.00;53382.06;10448558;28;20024;-66
2024/03/16 20:56:16;;;;;;;0.00;0.00;;;;;;;-145.06;100.00;53382.06;10450305;28;20925;-65
2024/03/16 21:01:16;;;;;;;0.00;0.00;;;;;;;-145.06;100.00;53369.94;10450445;28;20040;-65
2024/03/16 21:06:16;;;;;;;0.03;0.03;;;;;;;-145.06;100.00;53408.41;10454728;28;20028;-66
2024/03/16 21:11:24;;;;;;;0.00;0.00;;;;;;;-145.06;100.00;53386.13;10455277;28;20040;-66
2024/03/16 21:16:24;;;;;;;0.00;0.00;;;;;;;-145.06;100.00;53390.19;10454394;28;20045;-65
2024/03/16 21:21:24;;;;;;;0.00;0.00;;;;;;;-145.06;100.00;53361.81;10455038;28;20167;-66
2024/03/16 21:26:25;;;;;;;0.10;0.10;;;;;;;-145.06;100.00;53343.59;10454604;28;20440;-66
2024/03/16 21:31:28;;;;;;;0.00;0.00;;;;;;;-145.06;100.00;53329.44;10455227;28;20570;-66
2024/03/16 21:36:28;;;;;;;0.00;0.00;;;;;;;-145.06;100.00;53313.22;10454223;28;20059;-66
2024/03/16 21:41:28;;;;;;;0.00;0.00;;;;;;;-145.06;100.00;53361.81;10454576;28;20059;-66
2024/03/16 21:46:29;;;;;;;0.00;0.00;;;;;;;-145.06;100.00;53349.69;10453358;28;20037;-66
2024/03/16 21:51:29;;;;;;;0.00;0.00;;;;;;;-145.06;100.00;53341.59;10454137;28;20017;-66
2024/03/16 21:56:29;;;;;;;0.00;0.00;;;;;;;-145.06;100.00;53313.22;10454006;28;20048;-66
2024/03/16 22:01:29;;;;;;;0.00;0.00;;;;;;;-145.06;100.00;53315.25;10453213;28;20492;-66
2024/03/16 22:06:30;;;;;;;0.00;0.00;;;;;;;-145.06;100.00;53357.78;10453288;28;20028;-66
2024/03/16 22:11:30;;;;;;;0.00;0.00;;;;;;;-145.06;100.00;53335.50;10453166;28;20020;-66
2024/03/16 22:16:31;;;;;;;0.00;0.00;;;;;;;-145.06;100.00;53341.59;10451949;28;20021;-65
2024/03/16 22:21:33;;;;;;;0.00;0.00;;;;;;;-145.06;100.00;53333.47;10453124;28;21335;-66
2024/03/16 22:26:34;;;;;;;0.00;0.00;;;;;;;-145.06;100.00;53357.78;10449766;28;20016;-65
2024/03/16 22:31:34;;;;;;;0.00;0.00;;;;;;;-145.06;100.00;53355.75;10452663;28;20103;-65
2024/03/16 22:36:34;;;;;;;0.00;0.00;;;;;;;-145.06;100.00;53345.63;10452010;28;20267;-65